Portada
METAR-TAF:

METAR-TAF

Aeropuertos :

Aeropuerto Internacional de Dusambé

Dusambé, Tayikistán

latitud: 38-33N, longitud: 068-47E, altitud: 803 m

Observación

El informe se hizo hace 12 minutos, a las 20:00 UTC
Viento 6 kt del este
Temperatura 21°C
Humedad 43%
Presión 1012 hPa
Visibilidad: 8000 m

METAR: UTDD 222000Z 10003MPS 8000 NSC 21/08 Q1012 R09/D NOSIG RMK QFE691/0921

Hora: 01:12 (20:12 UTC)

Pronóstico

El informe se hizo hace 2 horas y 12 minutos, a las 18:00 UTC
Pronóstico válido del 22 a las 19 UTC al 23 a las 07 UTC
Viento 4 kt con dirección variable
Visibilidad: 6000 m
Escasas nubes a una altura de 6000 ft, Cumulonimbus.
Nubes dispersas a una altura de 10000 ft
Temporalmente
del 22 a las 19 UTC al 23 a las 07 UTC
Viento 10 kt del este

TAF: UTDD 221800Z 2219/2307 VRB02MPS 6000 FEW060CB SCT100 TEMPO 2219/2307 08005MPS

Observaciones y pronósticos meteorológicos de más de 4000 aeropuertos (mensajes METAR y TAF).

Los puntos amarillos y rojos representan las estaciones disponibles.

Ponga el ratón en el punto deseado para ver el nombre de la estación.

Haga clic para ver las observaciones y los pronósticos meteorológicos.

Para cambiar el mapa : haga clic en los botones verdes con una cruz de color negro para hacer un zoom, en el botón verde con un guión para alejar o en las flechas verdes para mapas adyacentes.


METAR-TAF: